createdAt,value
2019-05-01T06:55:17.308Z,99.90
2019-05-01T07:03:45.742Z,99.90
2019-05-01T07:06:14.322Z,99.90
2019-05-01T07:08:46.667Z,99.90
2019-05-01T07:11:34.610Z,99.90
2019-05-01T07:14:03.305Z,99.90
2019-05-01T07:17:43.779Z,99.90
2019-05-01T07:20:16.586Z,99.90
2019-05-01T07:22:44.129Z,99.90
2019-05-01T07:25:13.596Z,99.90
2019-05-01T07:27:42.346Z,99.90
2019-05-01T07:30:19.710Z,99.90
2019-05-01T07:32:49.132Z,99.90
2019-05-01T07:35:23.366Z,99.90
2019-05-01T07:37:53.189Z,99.90
2019-05-01T07:40:28.984Z,99.90
2019-05-01T07:42:57.379Z,99.90
2019-05-01T07:45:28.055Z,99.90
2019-05-01T07:48:01.075Z,99.90
2019-05-01T07:50:31.641Z,99.90
2019-05-01T07:53:02.563Z,99.90
2019-05-01T07:55:37.816Z,99.90
2019-05-01T07:58:15.560Z,99.90
2019-05-01T08:01:03.857Z,99.90
2019-05-01T08:03:32.640Z,99.90
2019-05-01T08:06:01.303Z,99.90
2019-05-01T08:08:29.995Z,99.90
2019-05-01T08:10:59.933Z,99.90
2019-05-01T08:13:30.619Z,99.90
2019-05-01T08:16:02.064Z,99.90
2019-05-01T08:18:43.187Z,99.90
2019-05-01T08:21:26.057Z,99.90
2019-05-01T08:23:55.711Z,96.60
2019-05-01T08:26:24.299Z,97.30
2019-05-01T08:29:10.780Z,97.20
2019-05-01T08:31:46.818Z,95.30
2019-05-01T08:34:29.852Z,91.60
2019-05-01T08:37:12.849Z,91.90
2019-05-01T08:39:44.162Z,95.30
2019-05-01T08:42:11.776Z,94.90
2019-05-01T08:44:48.033Z,95.00
2019-05-01T08:47:27.761Z,90.90
2019-05-01T08:49:58.005Z,90.30
2019-05-01T08:52:26.555Z,91.70
2019-05-01T08:54:55.207Z,90.00
2019-05-01T08:57:23.789Z,85.40
2019-05-01T08:59:55.704Z,87.60
2019-05-01T09:02:22.788Z,89.10
2019-05-01T09:05:01.669Z,87.80
2019-05-01T09:07:24.025Z,84.00
2019-05-01T09:09:51.933Z,86.30
2019-05-01T09:12:20.735Z,87.60
2019-05-01T09:14:51.166Z,90.50
2019-05-01T09:17:19.778Z,87.10
2019-05-01T09:19:48.369Z,86.90
2019-05-01T09:22:16.980Z,86.60
2019-05-01T09:24:46.734Z,86.90
2019-05-01T09:27:35.163Z,82.20
2019-05-01T09:30:07.443Z,78.90
2019-05-01T09:32:36.055Z,80.90
2019-05-01T09:35:15.927Z,78.10
2019-05-01T09:38:00.011Z,82.80
2019-05-01T09:40:30.468Z,75.90
2019-05-01T09:43:00.890Z,79.30
2019-05-01T09:45:29.517Z,77.90
2019-05-01T09:47:58.133Z,78.40
2019-05-01T09:50:30.429Z,82.30
2019-05-01T09:53:11.042Z,82.20
2019-05-01T09:55:44.289Z,74.30
2019-05-01T09:58:12.895Z,77.00
2019-05-01T10:00:41.501Z,75.90
2019-05-01T10:03:13.155Z,80.50
2019-05-01T10:05:43.005Z,73.30
2019-05-01T10:08:10.825Z,68.40
2019-05-01T10:10:39.516Z,69.80
2019-05-01T10:13:08.123Z,67.10
2019-05-01T10:15:36.769Z,74.10
2019-05-01T10:18:05.288Z,74.90
2019-05-01T10:20:33.877Z,74.70
2019-05-01T10:23:02.411Z,74.60
2019-05-01T10:25:31.002Z,63.60
2019-05-01T10:28:01.172Z,60.00
2019-05-01T10:30:36.231Z,60.90
2019-05-01T10:33:06.454Z,60.00
2019-05-01T10:36:05.238Z,62.30
2019-05-01T10:38:45.116Z,59.90
2019-05-01T10:41:14.669Z,65.90
2019-05-01T10:43:43.159Z,64.00
2019-05-01T10:46:11.791Z,61.90
2019-05-01T10:48:40.360Z,60.90
2019-05-01T10:51:08.967Z,59.90
2019-05-01T10:53:37.593Z,63.00
2019-05-01T10:56:06.205Z,61.60
2019-05-01T10:58:34.791Z,58.40
2019-05-01T11:01:05.024Z,63.30
2019-05-01T11:03:33.563Z,56.80
2019-05-01T11:06:02.025Z,62.20
2019-05-01T11:08:30.611Z,58.30
2019-05-01T11:10:59.073Z,58.30
2019-05-01T11:13:28.053Z,61.10
2019-05-01T11:15:56.760Z,62.20
2019-05-01T11:18:25.322Z,64.20
2019-05-01T11:20:53.891Z,66.00
2019-05-01T11:23:22.580Z,66.20
2019-05-01T11:25:51.126Z,63.80
2019-05-01T11:28:19.619Z,64.20
2019-05-01T11:30:50.835Z,60.20
2019-05-01T11:33:23.811Z,57.70
2019-05-01T11:36:35.059Z,57.60
2019-05-01T11:39:21.201Z,58.50
2019-05-01T11:41:51.477Z,62.40
2019-05-01T11:44:20.052Z,59.70
2019-05-01T11:46:48.907Z,60.80
2019-05-01T11:49:17.554Z,57.30
2019-05-01T11:51:46.115Z,59.80
2019-05-01T11:54:14.708Z,58.00
2019-05-01T11:56:43.311Z,57.70
2019-05-01T11:59:11.963Z,57.90
2019-05-01T12:01:40.888Z,58.80
2019-05-01T12:04:09.756Z,60.00
2019-05-01T12:06:38.682Z,60.80
2019-05-01T12:09:09.443Z,61.90
2019-05-01T12:11:39.694Z,60.10
2019-05-01T12:14:08.641Z,60.00
2019-05-01T12:16:54.203Z,61.30
2019-05-01T12:19:25.316Z,59.90
2019-05-01T12:21:54.303Z,59.80
2019-05-01T12:24:23.263Z,58.30
2019-05-01T12:26:52.012Z,60.10
2019-05-01T12:29:20.730Z,57.40
2019-05-01T12:31:50.996Z,55.70
2019-05-01T12:34:20.462Z,57.10
2019-05-01T12:36:52.110Z,58.00
2019-05-01T12:39:20.700Z,59.70
2019-05-01T12:41:56.959Z,58.70
2019-05-01T12:44:25.665Z,57.30
2019-05-01T12:47:09.706Z,57.80
2019-05-01T12:49:38.530Z,55.20
2019-05-01T12:52:11.749Z,60.20
2019-05-01T12:54:41.891Z,58.40
2019-05-01T12:57:10.543Z,55.60
2019-05-01T12:59:39.172Z,55.50
2019-05-01T13:02:07.915Z,54.00
2019-05-01T13:04:41.394Z,55.80
2019-05-01T13:07:09.498Z,55.20
2019-05-01T13:09:38.253Z,55.00
2019-05-01T13:12:06.938Z,55.70
2019-05-01T13:14:35.628Z,56.20
2019-05-01T13:17:04.273Z,56.30
2019-05-01T13:19:33.058Z,57.30
2019-05-01T13:22:01.719Z,55.70
2019-05-01T13:24:30.294Z,55.20
2019-05-01T13:27:06.445Z,56.20
2019-05-01T13:29:55.084Z,57.40
2019-05-01T13:32:25.545Z,57.50
2019-05-01T13:34:54.110Z,54.90
2019-05-01T13:37:22.701Z,52.80
2019-05-01T13:39:51.445Z,51.40
2019-05-01T13:42:20.023Z,52.20
2019-05-01T13:44:48.672Z,54.30
2019-05-01T13:47:17.272Z,52.40
2019-05-01T13:49:45.962Z,52.40
2019-05-01T13:52:14.580Z,54.80
2019-05-01T13:54:43.179Z,53.10
2019-05-01T13:57:11.951Z,55.70
2019-05-01T13:59:40.533Z,54.50
2019-05-01T14:02:10.273Z,49.80
2019-05-01T14:04:38.841Z,52.00
2019-05-01T14:07:16.445Z,52.30
2019-05-01T14:09:38.370Z,51.90
2019-05-01T14:12:06.864Z,50.80
2019-05-01T14:14:35.498Z,52.00
2019-05-01T14:17:04.123Z,52.60
2019-05-01T14:19:33.673Z,50.20
2019-05-01T14:22:07.056Z,51.80
2019-05-01T14:24:37.226Z,55.00
2019-05-01T14:27:07.704Z,50.80
2019-05-01T14:29:36.117Z,52.40
2019-05-01T14:32:04.748Z,51.60
2019-05-01T14:34:33.261Z,49.90
2019-05-01T14:37:28.995Z,50.20
2019-05-01T14:39:49.308Z,49.50
2019-05-01T14:42:17.899Z,52.80
2019-05-01T14:44:46.473Z,52.40
2019-05-01T14:47:15.164Z,50.60
2019-05-01T14:49:43.727Z,50.10
2019-05-01T14:52:12.251Z,52.30
2019-05-01T14:54:40.828Z,50.80
2019-05-01T14:57:09.314Z,51.10
2019-05-01T14:59:37.986Z,50.00
2019-05-01T15:02:06.602Z,49.30
2019-05-01T15:04:35.203Z,53.00
2019-05-01T15:07:03.861Z,52.40
2019-05-01T15:09:32.457Z,51.10
2019-05-01T15:12:00.999Z,52.40
2019-05-01T15:14:31.154Z,51.00
2019-05-01T15:17:10.540Z,50.90
2019-05-01T15:19:40.753Z,51.70
2019-05-01T15:22:09.335Z,51.20
2019-05-01T15:24:37.930Z,51.70
2019-05-01T15:27:06.502Z,50.80
2019-05-01T15:29:35.111Z,51.00
2019-05-01T15:32:03.751Z,51.00
2019-05-01T15:34:32.334Z,52.30
2019-05-01T15:37:07.455Z,54.40
2019-05-01T15:39:37.506Z,53.40
2019-05-01T15:42:26.141Z,55.10
2019-05-01T15:44:54.637Z,53.60
2019-05-01T15:47:23.164Z,53.10
2019-05-01T15:49:51.777Z,52.00
2019-05-01T15:52:20.364Z,52.50
2019-05-01T15:54:48.914Z,51.40
2019-05-01T15:57:17.500Z,52.00
2019-05-01T15:59:46.075Z,50.90
2019-05-01T16:02:14.640Z,51.20
2019-05-01T16:04:43.148Z,51.00
2019-05-01T16:07:11.722Z,51.30
2019-05-01T16:09:40.412Z,52.40
2019-05-01T16:12:10.700Z,53.00
2019-05-01T16:14:39.464Z,52.10
2019-05-01T16:17:08.126Z,52.80
2019-05-01T16:19:36.785Z,54.30
2019-05-01T16:22:05.372Z,54.80
2019-05-01T16:24:34.007Z,55.00
2019-05-01T16:27:02.679Z,54.80
2019-05-01T16:29:31.268Z,54.70
2019-05-01T16:31:59.999Z,55.10
2019-05-01T16:34:28.722Z,56.20
2019-05-01T16:37:08.514Z,58.20
2019-05-01T16:39:46.958Z,58.90
2019-05-01T16:42:15.476Z,58.30
2019-05-01T16:44:43.967Z,58.60
2019-05-01T16:47:12.563Z,62.20
2019-05-01T16:49:41.138Z,63.00
2019-05-01T16:52:09.880Z,62.20
2019-05-01T16:54:38.447Z,62.50
2019-05-01T16:57:08.760Z,64.60
2019-05-01T16:59:37.335Z,65.10
2019-05-01T17:02:20.677Z,66.00
2019-05-01T17:04:52.320Z,66.00
2019-05-01T17:07:35.003Z,65.60
2019-05-01T17:10:11.643Z,66.60
2019-05-01T17:12:44.772Z,69.50
2019-05-01T17:15:13.586Z,69.90
2019-05-01T17:17:42.833Z,71.50
2019-05-01T17:20:11.583Z,70.30
2019-05-01T17:22:40.427Z,72.20
2019-05-01T17:25:09.926Z,71.70
2019-05-01T17:27:38.398Z,71.70
2019-05-01T17:30:15.424Z,73.50
2019-05-01T17:32:45.369Z,73.80
2019-05-01T17:35:14.707Z,74.80
2019-05-01T17:37:50.638Z,74.80
2019-05-01T17:40:19.240Z,74.30
2019-05-01T17:42:47.842Z,74.80
2019-05-01T17:45:16.573Z,75.80
2019-05-01T17:47:45.453Z,76.00
2019-05-01T17:50:16.470Z,78.30
2019-05-01T17:52:46.470Z,80.30
2019-05-01T17:55:15.189Z,83.90
2019-05-01T17:57:44.515Z,85.70
2019-05-01T18:00:19.016Z,87.10
2019-05-01T18:02:51.123Z,88.90
2019-05-01T18:05:27.534Z,90.00
2019-05-01T18:08:02.038Z,92.10
2019-05-01T18:10:27.845Z,94.30
2019-05-01T18:13:03.247Z,96.80
2019-05-01T18:15:38.741Z,96.60
2019-05-01T18:18:10.724Z,96.20
2019-05-01T18:20:42.208Z,97.00
2019-05-01T18:23:20.959Z,98.30
2019-05-01T18:25:59.007Z,99.40
2019-05-01T18:28:55.365Z,99.90
2019-05-01T18:31:33.082Z,99.90
2019-05-01T18:34:16.116Z,99.90
2019-05-01T18:37:31.114Z,99.90
2019-05-01T18:40:07.062Z,99.90
2019-05-01T18:42:43.534Z,99.90
2019-05-01T18:48:31.679Z,99.90
2019-05-01T18:51:00.507Z,99.90
2019-05-01T18:53:50.747Z,99.90
2019-05-01T18:56:28.288Z,99.90
